Terminal Aerodrome Forecast
Issued by NWS

Home | Current Version | Previous Version | Graphics & Text | Print | Product List | Glossary On
Versions: 1 2 3 4 5 6 7 8 9 10 11 12 13 14
000
FTUS43 KUNR 251730
TAFGCC
TAF
KGCC 251730Z 2518/2618 16011KT P6SM SKC
     FM252100 05008KT P6SM SCT250
     FM260500 18006KT P6SM SCT250
     FM261400 14007KT P6SM SCT250=

USA.gov is the U.S. government's official web portal to all federal, state and local government web resources and services.